sensor_id;sensor_type;location;lat;lon;timestamp;temperature;humidity
12655;DHT22;6392;44.644;11.448;2023-03-23T00:02:19;13.70;99.90
12655;DHT22;6392;44.644;11.448;2023-03-23T00:04:50;13.70;99.90
12655;DHT22;6392;44.644;11.448;2023-03-23T00:07:18;13.60;99.90
12655;DHT22;6392;44.644;11.448;2023-03-23T00:09:47;13.60;99.90
12655;DHT22;6392;44.644;11.448;2023-03-23T00:12:19;13.60;99.90
12655;DHT22;6392;44.644;11.448;2023-03-23T00:14:47;13.60;99.90
12655;DHT22;6392;44.644;11.448;2023-03-23T00:17:14;13.60;99.90
12655;DHT22;6392;44.644;11.448;2023-03-23T00:19:41;13.60;99.90
12655;DHT22;6392;44.644;11.448;2023-03-23T00:22:15;13.60;99.90
12655;DHT22;6392;44.644;11.448;2023-03-23T00:24:45;13.50;99.90
12655;DHT22;6392;44.644;11.448;2023-03-23T00:27:12;13.50;99.90
12655;DHT22;6392;44.644;11.448;2023-03-23T00:29:40;13.50;99.90
12655;DHT22;6392;44.644;11.448;2023-03-23T00:32:08;13.50;99.90
12655;DHT22;6392;44.644;11.448;2023-03-23T00:34:38;13.50;99.90
12655;DHT22;6392;44.644;11.448;2023-03-23T00:37:06;13.50;99.90
12655;DHT22;6392;44.644;11.448;2023-03-23T00:39:35;13.40;99.90
12655;DHT22;6392;44.644;11.448;2023-03-23T00:42:03;13.40;99.90
12655;DHT22;6392;44.644;11.448;2023-03-23T00:44:32;13.40;99.90
12655;DHT22;6392;44.644;11.448;2023-03-23T00:47:01;13.40;99.90
12655;DHT22;6392;44.644;11.448;2023-03-23T00:49:28;13.50;99.90
12655;DHT22;6392;44.644;11.448;2023-03-23T00:51:57;13.50;99.90
12655;DHT22;6392;44.644;11.448;2023-03-23T00:54:25;13.50;99.90
12655;DHT22;6392;44.644;11.448;2023-03-23T00:56:54;13.50;99.90
12655;DHT22;6392;44.644;11.448;2023-03-23T00:59:21;13.50;99.90
12655;DHT22;6392;44.644;11.448;2023-03-23T01:01:49;13.50;99.90
12655;DHT22;6392;44.644;11.448;2023-03-23T01:04:16;13.50;99.90
12655;DHT22;6392;44.644;11.448;2023-03-23T01:06:44;13.50;99.90
12655;DHT22;6392;44.644;11.448;2023-03-23T01:09:13;13.50;99.90
12655;DHT22;6392;44.644;11.448;2023-03-23T01:11:42;13.50;99.90
12655;DHT22;6392;44.644;11.448;2023-03-23T01:14:11;13.40;99.90
12655;DHT22;6392;44.644;11.448;2023-03-23T01:16:39;13.30;99.90
12655;DHT22;6392;44.644;11.448;2023-03-23T01:19:06;13.30;99.90
12655;DHT22;6392;44.644;11.448;2023-03-23T01:21:33;13.20;99.90
12655;DHT22;6392;44.644;11.448;2023-03-23T01:24:00;13.20;99.90
12655;DHT22;6392;44.644;11.448;2023-03-23T01:26:29;13.20;99.90
12655;DHT22;6392;44.644;11.448;2023-03-23T01:28:56;13.20;99.90
12655;DHT22;6392;44.644;11.448;2023-03-23T01:31:25;13.20;99.90
12655;DHT22;6392;44.644;11.448;2023-03-23T01:33:52;13.10;99.90
12655;DHT22;6392;44.644;11.448;2023-03-23T01:36:22;13.10;99.90
12655;DHT22;6392;44.644;11.448;2023-03-23T01:38:50;13.00;99.90
12655;DHT22;6392;44.644;11.448;2023-03-23T01:41:18;13.00;99.90
12655;DHT22;6392;44.644;11.448;2023-03-23T01:44:00;12.90;99.90
12655;DHT22;6392;44.644;11.448;2023-03-23T01:46:31;12.90;99.90
12655;DHT22;6392;44.644;11.448;2023-03-23T01:49:01;12.90;99.90
12655;DHT22;6392;44.644;11.448;2023-03-23T01:51:35;12.80;99.90
12655;DHT22;6392;44.644;11.448;2023-03-23T01:54:07;12.70;99.90
12655;DHT22;6392;44.644;11.448;2023-03-23T01:56:40;12.70;99.90
12655;DHT22;6392;44.644;11.448;2023-03-23T01:59:10;12.60;99.90
12655;DHT22;6392;44.644;11.448;2023-03-23T02:01:39;12.60;99.90
12655;DHT22;6392;44.644;11.448;2023-03-23T02:04:11;12.60;99.90
12655;DHT22;6392;44.644;11.448;2023-03-23T02:06:38;12.60;99.90
12655;DHT22;6392;44.644;11.448;2023-03-23T02:09:05;12.50;99.90
12655;DHT22;6392;44.644;11.448;2023-03-23T02:11:32;12.50;99.90
12655;DHT22;6392;44.644;11.448;2023-03-23T02:14:00;12.60;99.90
12655;DHT22;6392;44.644;11.448;2023-03-23T02:16:33;12.60;99.90
12655;DHT22;6392;44.644;11.448;2023-03-23T02:19:21;12.70;99.90
12655;DHT22;6392;44.644;11.448;2023-03-23T02:22:17;12.80;99.90
12655;DHT22;6392;44.644;11.448;2023-03-23T02:24:57;12.80;99.90
12655;DHT22;6392;44.644;11.448;2023-03-23T02:30:43;12.70;99.90
12655;DHT22;6392;44.644;11.448;2023-03-23T02:33:29;12.60;99.90
12655;DHT22;6392;44.644;11.448;2023-03-23T02:35:58;12.60;99.90
12655;DHT22;6392;44.644;11.448;2023-03-23T02:38:31;12.50;99.90
12655;DHT22;6392;44.644;11.448;2023-03-23T02:41:01;12.40;99.90
12655;DHT22;6392;44.644;11.448;2023-03-23T02:43:33;12.40;99.90
12655;DHT22;6392;44.644;11.448;2023-03-23T02:46:04;12.40;99.90
12655;DHT22;6392;44.644;11.448;2023-03-23T02:48:36;12.30;99.90
12655;DHT22;6392;44.644;11.448;2023-03-23T02:51:06;12.30;99.90
12655;DHT22;6392;44.644;11.448;2023-03-23T02:53:37;12.20;99.90
12655;DHT22;6392;44.644;11.448;2023-03-23T02:56:07;12.20;99.90
12655;DHT22;6392;44.644;11.448;2023-03-23T02:58:35;12.20;99.90
12655;DHT22;6392;44.644;11.448;2023-03-23T03:01:16;12.20;99.90
12655;DHT22;6392;44.644;11.448;2023-03-23T03:04:06;12.20;99.90
12655;DHT22;6392;44.644;11.448;2023-03-23T03:06:38;12.30;99.90
12655;DHT22;6392;44.644;11.448;2023-03-23T03:09:11;12.40;99.90
12655;DHT22;6392;44.644;11.448;2023-03-23T03:11:46;12.40;99.90
12655;DHT22;6392;44.644;11.448;2023-03-23T03:14:19;12.30;99.90
12655;DHT22;6392;44.644;11.448;2023-03-23T03:16:52;12.20;99.90
12655;DHT22;6392;44.644;11.448;2023-03-23T03:19:24;12.20;99.90
12655;DHT22;6392;44.644;11.448;2023-03-23T03:21:54;12.10;99.90
12655;DHT22;6392;44.644;11.448;2023-03-23T03:24:24;12.00;99.90
12655;DHT22;6392;44.644;11.448;2023-03-23T03:26:54;11.90;99.90
12655;DHT22;6392;44.644;11.448;2023-03-23T03:29:26;11.90;99.90
12655;DHT22;6392;44.644;11.448;2023-03-23T03:31:56;11.80;99.90
12655;DHT22;6392;44.644;11.448;2023-03-23T03:34:25;11.80;99.90
12655;DHT22;6392;44.644;11.448;2023-03-23T03:36:54;11.80;99.90
12655;DHT22;6392;44.644;11.448;2023-03-23T03:39:26;11.70;99.90
12655;DHT22;6392;44.644;11.448;2023-03-23T03:41:54;11.70;99.90
12655;DHT22;6392;44.644;11.448;2023-03-23T03:44:21;11.60;99.90
12655;DHT22;6392;44.644;11.448;2023-03-23T03:46:48;11.60;99.90
12655;DHT22;6392;44.644;11.448;2023-03-23T03:49:15;11.60;99.90
12655;DHT22;6392;44.644;11.448;2023-03-23T03:51:43;11.50;99.90
12655;DHT22;6392;44.644;11.448;2023-03-23T03:54:11;11.50;99.90
12655;DHT22;6392;44.644;11.448;2023-03-23T03:56:38;11.50;99.90
12655;DHT22;6392;44.644;11.448;2023-03-23T03:59:06;11.50;99.90
12655;DHT22;6392;44.644;11.448;2023-03-23T04:01:36;11.50;99.90
12655;DHT22;6392;44.644;11.448;2023-03-23T04:04:03;11.60;99.90
12655;DHT22;6392;44.644;11.448;2023-03-23T04:06:32;11.60;99.90
12655;DHT22;6392;44.644;11.448;2023-03-23T04:09:03;11.60;99.90
12655;DHT22;6392;44.644;11.448;2023-03-23T04:11:33;11.70;99.90
12655;DHT22;6392;44.644;11.448;2023-03-23T04:14:00;11.70;99.90
12655;DHT22;6392;44.644;11.448;2023-03-23T04:16:28;11.70;99.90
12655;DHT22;6392;44.644;11.448;2023-03-23T04:18:56;11.70;99.90
12655;DHT22;6392;44.644;11.448;2023-03-23T04:21:23;11.60;99.90
12655;DHT22;6392;44.644;11.448;2023-03-23T04:23:54;11.60;99.90
12655;DHT22;6392;44.644;11.448;2023-03-23T04:26:26;11.60;99.90
12655;DHT22;6392;44.644;11.448;2023-03-23T04:28:54;11.60;99.90
12655;DHT22;6392;44.644;11.448;2023-03-23T04:31:21;11.60;99.90
12655;DHT22;6392;44.644;11.448;2023-03-23T04:33:50;11.60;99.90
12655;DHT22;6392;44.644;11.448;2023-03-23T04:36:19;11.70;99.90
12655;DHT22;6392;44.644;11.448;2023-03-23T04:38:48;11.60;99.90
12655;DHT22;6392;44.644;11.448;2023-03-23T04:41:16;11.60;99.90
12655;DHT22;6392;44.644;11.448;2023-03-23T04:43:45;11.60;99.90
12655;DHT22;6392;44.644;11.448;2023-03-23T04:46:12;11.50;99.90
12655;DHT22;6392;44.644;11.448;2023-03-23T04:48:43;11.50;99.90
12655;DHT22;6392;44.644;11.448;2023-03-23T04:51:11;11.50;99.90
12655;DHT22;6392;44.644;11.448;2023-03-23T04:53:39;11.50;99.90
12655;DHT22;6392;44.644;11.448;2023-03-23T04:56:06;11.50;99.90
12655;DHT22;6392;44.644;11.448;2023-03-23T04:58:33;11.40;99.90
12655;DHT22;6392;44.644;11.448;2023-03-23T05:01:02;11.30;99.90
12655;DHT22;6392;44.644;11.448;2023-03-23T05:03:30;11.30;99.90
12655;DHT22;6392;44.644;11.448;2023-03-23T05:06:00;11.20;99.90
12655;DHT22;6392;44.644;11.448;2023-03-23T05:08:27;11.20;99.90
12655;DHT22;6392;44.644;11.448;2023-03-23T05:10:58;11.20;99.90
12655;DHT22;6392;44.644;11.448;2023-03-23T05:13:26;11.20;99.90
12655;DHT22;6392;44.644;11.448;2023-03-23T05:15:54;11.20;99.90
12655;DHT22;6392;44.644;11.448;2023-03-23T05:18:22;11.30;99.90
12655;DHT22;6392;44.644;11.448;2023-03-23T05:20:49;11.40;99.90
12655;DHT22;6392;44.644;11.448;2023-03-23T05:23:18;11.50;99.90
12655;DHT22;6392;44.644;11.448;2023-03-23T05:25:53;11.50;99.90
12655;DHT22;6392;44.644;11.448;2023-03-23T05:28:20;11.60;99.90
12655;DHT22;6392;44.644;11.448;2023-03-23T05:30:47;11.60;99.90
12655;DHT22;6392;44.644;11.448;2023-03-23T05:33:15;11.70;99.90
12655;DHT22;6392;44.644;11.448;2023-03-23T05:35:43;11.70;99.90
12655;DHT22;6392;44.644;11.448;2023-03-23T05:38:12;11.80;99.90
12655;DHT22;6392;44.644;11.448;2023-03-23T05:40:40;11.80;99.90
12655;DHT22;6392;44.644;11.448;2023-03-23T05:43:08;11.80;99.90
12655;DHT22;6392;44.644;11.448;2023-03-23T05:45:35;11.90;99.90
12655;DHT22;6392;44.644;11.448;2023-03-23T05:48:02;11.90;99.90
12655;DHT22;6392;44.644;11.448;2023-03-23T05:50:29;11.90;99.90
12655;DHT22;6392;44.644;11.448;2023-03-23T05:52:58;12.00;99.90
12655;DHT22;6392;44.644;11.448;2023-03-23T05:55:25;12.00;99.90
12655;DHT22;6392;44.644;11.448;2023-03-23T05:57:52;12.00;99.90
12655;DHT22;6392;44.644;11.448;2023-03-23T06:00:20;12.00;99.90
12655;DHT22;6392;44.644;11.448;2023-03-23T06:02:49;12.10;99.90
12655;DHT22;6392;44.644;11.448;2023-03-23T06:05:16;12.10;99.90
12655;DHT22;6392;44.644;11.448;2023-03-23T06:07:45;12.20;99.90
12655;DHT22;6392;44.644;11.448;2023-03-23T06:10:13;12.20;99.90
12655;DHT22;6392;44.644;11.448;2023-03-23T06:12:41;12.20;99.90
12655;DHT22;6392;44.644;11.448;2023-03-23T06:15:09;12.20;99.90
12655;DHT22;6392;44.644;11.448;2023-03-23T06:17:37;12.30;99.90
12655;DHT22;6392;44.644;11.448;2023-03-23T06:20:05;12.30;99.90
12655;DHT22;6392;44.644;11.448;2023-03-23T06:22:36;12.30;99.90
12655;DHT22;6392;44.644;11.448;2023-03-23T06:25:06;12.30;99.90
12655;DHT22;6392;44.644;11.448;2023-03-23T06:27:34;12.40;99.90
12655;DHT22;6392;44.644;11.448;2023-03-23T06:30:02;12.40;99.90
12655;DHT22;6392;44.644;11.448;2023-03-23T06:32:30;12.40;99.90
12655;DHT22;6392;44.644;11.448;2023-03-23T06:34:58;12.40;99.90
12655;DHT22;6392;44.644;11.448;2023-03-23T06:37:26;12.50;99.90
12655;DHT22;6392;44.644;11.448;2023-03-23T06:39:53;12.60;99.90
12655;DHT22;6392;44.644;11.448;2023-03-23T06:42:22;12.70;99.90
12655;DHT22;6392;44.644;11.448;2023-03-23T06:44:51;12.80;99.90
12655;DHT22;6392;44.644;11.448;2023-03-23T06:47:22;12.90;99.90
12655;DHT22;6392;44.644;11.448;2023-03-23T06:49:49;13.00;99.90
12655;DHT22;6392;44.644;11.448;2023-03-23T06:52:16;13.10;99.90
12655;DHT22;6392;44.644;11.448;2023-03-23T06:54:44;13.20;99.90
12655;DHT22;6392;44.644;11.448;2023-03-23T06:57:11;13.20;99.90
12655;DHT22;6392;44.644;11.448;2023-03-23T06:59:38;13.20;99.90
12655;DHT22;6392;44.644;11.448;2023-03-23T07:02:08;13.20;99.90
12655;DHT22;6392;44.644;11.448;2023-03-23T07:04:36;13.20;99.90
12655;DHT22;6392;44.644;11.448;2023-03-23T07:07:04;13.20;99.90
12655;DHT22;6392;44.644;11.448;2023-03-23T07:09:31;13.30;99.90
12655;DHT22;6392;44.644;11.448;2023-03-23T07:11:58;13.40;99.90
12655;DHT22;6392;44.644;11.448;2023-03-23T07:14:25;13.50;99.90
12655;DHT22;6392;44.644;11.448;2023-03-23T07:16:52;13.60;99.90
12655;DHT22;6392;44.644;11.448;2023-03-23T07:19:21;13.70;99.90
12655;DHT22;6392;44.644;11.448;2023-03-23T07:21:48;13.80;99.90
12655;DHT22;6392;44.644;11.448;2023-03-23T07:24:16;13.90;99.90
12655;DHT22;6392;44.644;11.448;2023-03-23T07:26:44;13.90;99.90
12655;DHT22;6392;44.644;11.448;2023-03-23T07:29:11;13.90;99.90
12655;DHT22;6392;44.644;11.448;2023-03-23T07:31:39;14.00;99.90
12655;DHT22;6392;44.644;11.448;2023-03-23T07:34:06;14.10;99.90
12655;DHT22;6392;44.644;11.448;2023-03-23T07:36:35;14.10;99.90
12655;DHT22;6392;44.644;11.448;2023-03-23T07:39:03;14.20;99.90
12655;DHT22;6392;44.644;11.448;2023-03-23T07:41:31;14.30;99.90
12655;DHT22;6392;44.644;11.448;2023-03-23T07:43:58;14.30;99.90
12655;DHT22;6392;44.644;11.448;2023-03-23T07:46:25;14.40;99.90
12655;DHT22;6392;44.644;11.448;2023-03-23T07:48:52;14.40;99.90
12655;DHT22;6392;44.644;11.448;2023-03-23T07:51:19;14.50;99.90
12655;DHT22;6392;44.644;11.448;2023-03-23T07:53:48;14.60;99.90
12655;DHT22;6392;44.644;11.448;2023-03-23T07:56:15;14.60;99.90
12655;DHT22;6392;44.644;11.448;2023-03-23T07:58:45;14.70;99.90
12655;DHT22;6392;44.644;11.448;2023-03-23T08:01:12;14.70;99.90
12655;DHT22;6392;44.644;11.448;2023-03-23T08:03:39;14.80;99.90
12655;DHT22;6392;44.644;11.448;2023-03-23T08:06:07;14.80;99.90
12655;DHT22;6392;44.644;11.448;2023-03-23T08:08:34;14.90;99.90
12655;DHT22;6392;44.644;11.448;2023-03-23T08:11:04;15.00;99.90
12655;DHT22;6392;44.644;11.448;2023-03-23T08:13:31;15.10;99.90
12655;DHT22;6392;44.644;11.448;2023-03-23T08:16:00;15.10;99.90
12655;DHT22;6392;44.644;11.448;2023-03-23T08:18:29;15.10;99.90
12655;DHT22;6392;44.644;11.448;2023-03-23T08:20:56;15.20;99.90
12655;DHT22;6392;44.644;11.448;2023-03-23T08:23:23;15.10;99.90
12655;DHT22;6392;44.644;11.448;2023-03-23T08:25:50;15.10;99.90
12655;DHT22;6392;44.644;11.448;2023-03-23T08:28:18;15.20;99.90
12655;DHT22;6392;44.644;11.448;2023-03-23T08:30:45;15.30;99.90
12655;DHT22;6392;44.644;11.448;2023-03-23T08:33:12;15.30;99.90
12655;DHT22;6392;44.644;11.448;2023-03-23T08:35:40;15.30;99.90
12655;DHT22;6392;44.644;11.448;2023-03-23T08:38:08;15.50;99.90
12655;DHT22;6392;44.644;11.448;2023-03-23T08:40:35;15.50;99.90
12655;DHT22;6392;44.644;11.448;2023-03-23T08:43:02;15.50;99.90
12655;DHT22;6392;44.644;11.448;2023-03-23T08:45:31;15.50;99.90
12655;DHT22;6392;44.644;11.448;2023-03-23T08:47:58;15.50;99.90
12655;DHT22;6392;44.644;11.448;2023-03-23T08:50:27;15.60;99.90
12655;DHT22;6392;44.644;11.448;2023-03-23T08:52:56;15.60;99.90
12655;DHT22;6392;44.644;11.448;2023-03-23T08:55:24;15.70;99.90
12655;DHT22;6392;44.644;11.448;2023-03-23T08:57:52;15.70;99.90
12655;DHT22;6392;44.644;11.448;2023-03-23T09:00:20;15.80;99.90
12655;DHT22;6392;44.644;11.448;2023-03-23T09:02:53;15.80;99.90
12655;DHT22;6392;44.644;11.448;2023-03-23T09:05:23;15.90;99.90
12655;DHT22;6392;44.644;11.448;2023-03-23T09:07:53;16.00;99.90
12655;DHT22;6392;44.644;11.448;2023-03-23T09:10:21;16.00;99.90
12655;DHT22;6392;44.644;11.448;2023-03-23T09:12:51;16.00;99.90
12655;DHT22;6392;44.644;11.448;2023-03-23T09:15:18;16.10;99.90
12655;DHT22;6392;44.644;11.448;2023-03-23T09:17:47;16.10;99.90
12655;DHT22;6392;44.644;11.448;2023-03-23T09:20:17;16.10;99.90
12655;DHT22;6392;44.644;11.448;2023-03-23T09:22:47;16.20;99.90
12655;DHT22;6392;44.644;11.448;2023-03-23T09:25:16;16.20;99.90
12655;DHT22;6392;44.644;11.448;2023-03-23T09:27:47;16.30;99.90
12655;DHT22;6392;44.644;11.448;2023-03-23T09:30:18;16.30;99.90
12655;DHT22;6392;44.644;11.448;2023-03-23T09:32:45;16.40;99.90
12655;DHT22;6392;44.644;11.448;2023-03-23T09:35:15;16.40;99.90
12655;DHT22;6392;44.644;11.448;2023-03-23T09:37:43;16.50;99.90
12655;DHT22;6392;44.644;11.448;2023-03-23T09:40:13;16.60;99.90
12655;DHT22;6392;44.644;11.448;2023-03-23T09:42:58;16.60;99.90
12655;DHT22;6392;44.644;11.448;2023-03-23T09:45:34;16.70;99.90
12655;DHT22;6392;44.644;11.448;2023-03-23T09:48:22;16.80;99.90
12655;DHT22;6392;44.644;11.448;2023-03-23T09:50:57;16.80;99.90
12655;DHT22;6392;44.644;11.448;2023-03-23T09:53:30;16.90;99.90
12655;DHT22;6392;44.644;11.448;2023-03-23T09:56:01;17.00;99.90
12655;DHT22;6392;44.644;11.448;2023-03-23T09:58:31;17.10;99.90
12655;DHT22;6392;44.644;11.448;2023-03-23T10:01:02;17.20;99.90
12655;DHT22;6392;44.644;11.448;2023-03-23T10:03:34;17.20;99.90
12655;DHT22;6392;44.644;11.448;2023-03-23T10:06:06;17.30;99.90
12655;DHT22;6392;44.644;11.448;2023-03-23T10:08:34;17.40;99.90
12655;DHT22;6392;44.644;11.448;2023-03-23T10:11:03;17.50;99.90
12655;DHT22;6392;44.644;11.448;2023-03-23T10:13:56;17.60;99.90
12655;DHT22;6392;44.644;11.448;2023-03-23T10:16:28;17.60;99.90
12655;DHT22;6392;44.644;11.448;2023-03-23T10:19:00;17.70;99.90
12655;DHT22;6392;44.644;11.448;2023-03-23T10:21:35;17.70;99.90
12655;DHT22;6392;44.644;11.448;2023-03-23T10:24:04;17.70;99.90
12655;DHT22;6392;44.644;11.448;2023-03-23T10:26:43;17.80;99.90
12655;DHT22;6392;44.644;11.448;2023-03-23T10:29:15;17.80;99.90
12655;DHT22;6392;44.644;11.448;2023-03-23T10:31:47;17.80;99.90
12655;DHT22;6392;44.644;11.448;2023-03-23T10:34:20;17.80;99.90
12655;DHT22;6392;44.644;11.448;2023-03-23T10:36:59;17.80;99.90
12655;DHT22;6392;44.644;11.448;2023-03-23T10:39:30;17.80;99.90
12655;DHT22;6392;44.644;11.448;2023-03-23T10:42:00;17.70;99.90
12655;DHT22;6392;44.644;11.448;2023-03-23T10:44:33;17.80;99.90
12655;DHT22;6392;44.644;11.448;2023-03-23T10:47:01;17.80;99.90
12655;DHT22;6392;44.644;11.448;2023-03-23T10:49:34;17.90;99.90
12655;DHT22;6392;44.644;11.448;2023-03-23T10:52:12;17.90;99.90
12655;DHT22;6392;44.644;11.448;2023-03-23T10:54:49;17.90;99.90
12655;DHT22;6392;44.644;11.448;2023-03-23T10:57:22;18.00;99.90
12655;DHT22;6392;44.644;11.448;2023-03-23T10:59:50;18.10;99.90
12655;DHT22;6392;44.644;11.448;2023-03-23T11:02:19;18.10;99.90
12655;DHT22;6392;44.644;11.448;2023-03-23T11:04:55;18.20;99.90
12655;DHT22;6392;44.644;11.448;2023-03-23T11:07:29;18.20;99.90
12655;DHT22;6392;44.644;11.448;2023-03-23T11:10:15;18.30;99.90
12655;DHT22;6392;44.644;11.448;2023-03-23T11:12:44;18.30;99.90
12655;DHT22;6392;44.644;11.448;2023-03-23T11:15:26;18.30;99.90
12655;DHT22;6392;44.644;11.448;2023-03-23T11:17:58;18.40;99.90
12655;DHT22;6392;44.644;11.448;2023-03-23T11:20:26;18.60;99.90
12655;DHT22;6392;44.644;11.448;2023-03-23T11:22:55;18.70;99.90
12655;DHT22;6392;44.644;11.448;2023-03-23T11:25:23;18.80;99.90
12655;DHT22;6392;44.644;11.448;2023-03-23T11:27:52;18.80;99.90
12655;DHT22;6392;44.644;11.448;2023-03-23T11:30:24;18.80;99.90
12655;DHT22;6392;44.644;11.448;2023-03-23T11:32:53;18.90;99.90
12655;DHT22;6392;44.644;11.448;2023-03-23T11:35:23;18.90;99.90
12655;DHT22;6392;44.644;11.448;2023-03-23T11:37:52;18.90;99.90
12655;DHT22;6392;44.644;11.448;2023-03-23T11:40:23;18.90;99.90
12655;DHT22;6392;44.644;11.448;2023-03-23T11:42:58;18.80;99.90
12655;DHT22;6392;44.644;11.448;2023-03-23T11:45:32;18.90;99.90
12655;DHT22;6392;44.644;11.448;2023-03-23T11:48:07;18.80;99.90
12655;DHT22;6392;44.644;11.448;2023-03-23T11:50:47;18.80;99.90
12655;DHT22;6392;44.644;11.448;2023-03-23T11:53:27;18.80;99.90
12655;DHT22;6392;44.644;11.448;2023-03-23T11:56:09;18.90;99.90
12655;DHT22;6392;44.644;11.448;2023-03-23T11:58:38;18.90;99.90
12655;DHT22;6392;44.644;11.448;2023-03-23T12:01:10;18.90;99.90
12655;DHT22;6392;44.644;11.448;2023-03-23T12:03:56;18.90;99.90
12655;DHT22;6392;44.644;11.448;2023-03-23T12:06:32;18.90;99.90
12655;DHT22;6392;44.644;11.448;2023-03-23T12:09:11;19.00;99.90
12655;DHT22;6392;44.644;11.448;2023-03-23T12:11:52;19.10;99.90
12655;DHT22;6392;44.644;11.448;2023-03-23T12:14:28;19.10;99.90
12655;DHT22;6392;44.644;11.448;2023-03-23T12:17:03;19.20;99.90
12655;DHT22;6392;44.644;11.448;2023-03-23T12:19:38;19.20;99.90
12655;DHT22;6392;44.644;11.448;2023-03-23T12:22:16;19.20;99.90
12655;DHT22;6392;44.644;11.448;2023-03-23T12:24:58;19.20;99.90
12655;DHT22;6392;44.644;11.448;2023-03-23T12:27:35;19.20;99.90
12655;DHT22;6392;44.644;11.448;2023-03-23T12:30:15;19.20;99.90
12655;DHT22;6392;44.644;11.448;2023-03-23T12:33:11;19.30;99.90
12655;DHT22;6392;44.644;11.448;2023-03-23T12:35:48;19.40;99.90
12655;DHT22;6392;44.644;11.448;2023-03-23T12:38:31;19.50;99.90
12655;DHT22;6392;44.644;11.448;2023-03-23T12:41:08;19.70;99.90
12655;DHT22;6392;44.644;11.448;2023-03-23T12:43:48;19.80;99.90
12655;DHT22;6392;44.644;11.448;2023-03-23T12:46:38;19.80;99.90
12655;DHT22;6392;44.644;11.448;2023-03-23T12:49:13;19.80;99.90
12655;DHT22;6392;44.644;11.448;2023-03-23T12:51:45;19.90;99.90
12655;DHT22;6392;44.644;11.448;2023-03-23T12:54:21;19.90;99.90
12655;DHT22;6392;44.644;11.448;2023-03-23T12:56:55;19.90;99.90
12655;DHT22;6392;44.644;11.448;2023-03-23T12:59:34;19.80;99.90
12655;DHT22;6392;44.644;11.448;2023-03-23T13:02:10;19.80;99.90
12655;DHT22;6392;44.644;11.448;2023-03-23T13:04:41;19.80;99.90
12655;DHT22;6392;44.644;11.448;2023-03-23T13:07:14;19.80;99.90
12655;DHT22;6392;44.644;11.448;2023-03-23T13:09:48;19.80;99.90
12655;DHT22;6392;44.644;11.448;2023-03-23T13:12:16;19.80;99.90
12655;DHT22;6392;44.644;11.448;2023-03-23T13:14:56;20.00;99.90
12655;DHT22;6392;44.644;11.448;2023-03-23T13:17:35;20.20;99.90
12655;DHT22;6392;44.644;11.448;2023-03-23T13:20:32;20.40;99.90
12655;DHT22;6392;44.644;11.448;2023-03-23T13:23:05;20.50;99.90
12655;DHT22;6392;44.644;11.448;2023-03-23T13:25:49;20.50;99.90
12655;DHT22;6392;44.644;11.448;2023-03-23T13:28:18;20.50;99.90
12655;DHT22;6392;44.644;11.448;2023-03-23T13:30:59;20.50;99.90
12655;DHT22;6392;44.644;11.448;2023-03-23T13:33:30;20.60;99.90
12655;DHT22;6392;44.644;11.448;2023-03-23T13:36:04;20.70;99.90
12655;DHT22;6392;44.644;11.448;2023-03-23T13:38:32;20.90;99.90
12655;DHT22;6392;44.644;11.448;2023-03-23T13:41:07;21.10;99.90
12655;DHT22;6392;44.644;11.448;2023-03-23T13:43:35;21.20;99.90
12655;DHT22;6392;44.644;11.448;2023-03-23T13:46:11;21.40;99.90
12655;DHT22;6392;44.644;11.448;2023-03-23T13:48:46;21.50;99.90
12655;DHT22;6392;44.644;11.448;2023-03-23T13:51:32;21.50;99.90
12655;DHT22;6392;44.644;11.448;2023-03-23T13:54:14;21.30;99.90
12655;DHT22;6392;44.644;11.448;2023-03-23T13:56:52;21.10;99.90
12655;DHT22;6392;44.644;11.448;2023-03-23T13:59:33;21.00;99.90
12655;DHT22;6392;44.644;11.448;2023-03-23T14:02:34;21.00;99.90
12655;DHT22;6392;44.644;11.448;2023-03-23T14:05:11;21.00;99.90
12655;DHT22;6392;44.644;11.448;2023-03-23T14:07:56;21.00;99.90
12655;DHT22;6392;44.644;11.448;2023-03-23T14:10:31;21.00;99.90
12655;DHT22;6392;44.644;11.448;2023-03-23T14:13:00;20.90;99.90
12655;DHT22;6392;44.644;11.448;2023-03-23T14:15:29;20.90;99.90
12655;DHT22;6392;44.644;11.448;2023-03-23T14:18:02;20.80;99.90
12655;DHT22;6392;44.644;11.448;2023-03-23T14:20:31;20.80;99.90
12655;DHT22;6392;44.644;11.448;2023-03-23T14:23:00;20.90;99.90
12655;DHT22;6392;44.644;11.448;2023-03-23T14:25:29;20.90;99.90
12655;DHT22;6392;44.644;11.448;2023-03-23T14:27:58;20.90;99.90
12655;DHT22;6392;44.644;11.448;2023-03-23T14:30:27;20.90;99.90
12655;DHT22;6392;44.644;11.448;2023-03-23T14:33:05;21.00;99.90
12655;DHT22;6392;44.644;11.448;2023-03-23T14:35:35;21.10;99.90
12655;DHT22;6392;44.644;11.448;2023-03-23T14:38:04;21.30;99.90
12655;DHT22;6392;44.644;11.448;2023-03-23T14:40:36;21.40;99.90
12655;DHT22;6392;44.644;11.448;2023-03-23T14:43:03;21.50;99.90
12655;DHT22;6392;44.644;11.448;2023-03-23T14:45:32;21.70;99.90
12655;DHT22;6392;44.644;11.448;2023-03-23T14:48:01;21.70;99.90
12655;DHT22;6392;44.644;11.448;2023-03-23T14:50:36;21.60;99.90
12655;DHT22;6392;44.644;11.448;2023-03-23T14:53:12;21.60;99.90
12655;DHT22;6392;44.644;11.448;2023-03-23T14:55:42;21.50;99.90
12655;DHT22;6392;44.644;11.448;2023-03-23T14:58:13;21.50;99.90
12655;DHT22;6392;44.644;11.448;2023-03-23T15:00:43;21.60;99.90
12655;DHT22;6392;44.644;11.448;2023-03-23T15:03:12;21.70;99.90
12655;DHT22;6392;44.644;11.448;2023-03-23T15:05:44;21.70;99.90
12655;DHT22;6392;44.644;11.448;2023-03-23T15:08:15;21.90;99.90
12655;DHT22;6392;44.644;11.448;2023-03-23T15:10:52;21.90;99.90
12655;DHT22;6392;44.644;11.448;2023-03-23T15:13:20;21.90;99.90
12655;DHT22;6392;44.644;11.448;2023-03-23T15:15:47;21.90;99.90
12655;DHT22;6392;44.644;11.448;2023-03-23T15:18:29;21.90;99.90
12655;DHT22;6392;44.644;11.448;2023-03-23T15:21:08;22.00;99.90
12655;DHT22;6392;44.644;11.448;2023-03-23T15:23:41;22.00;99.90
12655;DHT22;6392;44.644;11.448;2023-03-23T15:26:21;22.10;99.90
12655;DHT22;6392;44.644;11.448;2023-03-23T15:28:49;22.20;99.90
12655;DHT22;6392;44.644;11.448;2023-03-23T15:31:16;22.20;99.90
12655;DHT22;6392;44.644;11.448;2023-03-23T15:33:43;22.20;99.90
12655;DHT22;6392;44.644;11.448;2023-03-23T15:36:16;22.30;99.90
12655;DHT22;6392;44.644;11.448;2023-03-23T15:38:46;22.40;99.90
12655;DHT22;6392;44.644;11.448;2023-03-23T15:41:22;22.50;99.90
12655;DHT22;6392;44.644;11.448;2023-03-23T15:43:52;22.50;99.90
12655;DHT22;6392;44.644;11.448;2023-03-23T15:46:22;22.60;99.90
12655;DHT22;6392;44.644;11.448;2023-03-23T15:48:51;22.70;99.90
12655;DHT22;6392;44.644;11.448;2023-03-23T15:51:22;22.90;99.90
12655;DHT22;6392;44.644;11.448;2023-03-23T15:53:51;23.00;99.90
12655;DHT22;6392;44.644;11.448;2023-03-23T15:56:18;23.00;99.90
12655;DHT22;6392;44.644;11.448;2023-03-23T15:58:46;23.10;99.90